Time;durP1;ratioP1;P1;durP2;ratioP2;P2;SDS_P1;SDS_P2;PMS_P1;PMS_P2;Temp;Humidity;BMP_temperature;BMP_pressure;BME280_temperature;BME280_humidity;BME280_pressure;Samples;Min_cycle;Max_cycle;Signal;HPM_P1;HPM_P2
2023/02/25 00:02:23;;;;;;;3.65;1.17;;;5.10;99.90;;;;;;4891127;29;20071;-78
2023/02/25 00:04:49;;;;;;;3.15;0.98;;;5.00;99.90;;;;;;4863661;29;20219;-78
2023/02/25 00:07:14;;;;;;;5.55;0.85;;;5.10;99.90;;;;;;4885481;29;20049;-79
2023/02/25 00:09:40;;;;;;;9.77;0.85;;;5.00;99.90;;;;;;4889334;29;20013;-78
2023/02/25 00:12:06;;;;;;;2.22;0.70;;;5.00;99.90;;;;;;4895638;29;20112;-77
2023/02/25 00:14:32;;;;;;;9.07;1.17;;;5.00;99.90;;;;;;4868515;29;20549;-77
2023/02/25 00:16:58;;;;;;;2.15;0.93;;;5.00;99.90;;;;;;4867315;29;20025;-76
2023/02/25 00:19:24;;;;;;;5.63;0.90;;;5.00;99.90;;;;;;4881973;29;20029;-77
2023/02/25 00:21:50;;;;;;;12.40;1.30;;;5.00;99.90;;;;;;4880434;29;20052;-76
2023/02/25 00:24:16;;;;;;;6.20;0.95;;;5.00;99.90;;;;;;4880377;29;20029;-77
2023/02/25 00:26:43;;;;;;;8.75;0.60;;;5.00;99.90;;;;;;4891558;29;20068;-76
2023/02/25 00:29:08;;;;;;;12.43;0.95;;;5.10;99.90;;;;;;4880956;29;20037;-78
2023/02/25 00:31:34;;;;;;;5.75;0.95;;;5.00;99.90;;;;;;4897697;29;20032;-76
2023/02/25 00:33:59;;;;;;;9.10;0.88;;;5.00;99.90;;;;;;4878578;29;20033;-77
2023/02/25 00:36:26;;;;;;;8.15;1.15;;;5.00;99.90;;;;;;4880402;29;20423;-78
2023/02/25 00:38:54;;;;;;;3.80;0.60;;;5.00;99.90;;;;;;4882027;29;20040;-76
2023/02/25 00:41:23;;;;;;;6.97;0.90;;;5.00;99.90;;;;;;4877375;29;20049;-77
2023/02/25 00:43:52;;;;;;;5.63;0.80;;;5.00;99.90;;;;;;4877395;29;20061;-77
2023/02/25 00:46:18;;;;;;;5.72;1.25;;;4.90;99.90;;;;;;4898634;29;20029;-77
2023/02/25 00:48:44;;;;;;;3.53;0.60;;;4.90;99.90;;;;;;4884608;29;20033;-77
2023/02/25 00:51:15;;;;;;;4.18;0.88;;;4.80;99.90;;;;;;4893454;29;20111;-77
2023/02/25 00:53:41;;;;;;;9.48;1.17;;;4.80;99.90;;;;;;4898041;29;20035;-76
2023/02/25 00:56:09;;;;;;;9.07;1.17;;;4.80;99.90;;;;;;4897791;29;20036;-77
2023/02/25 00:58:38;;;;;;;5.97;0.90;;;4.70;99.90;;;;;;4898391;29;20504;-76
2023/02/25 01:01:13;;;;;;;4.00;1.40;;;4.70;99.90;;;;;;4879813;29;20043;-76
2023/02/25 01:03:40;;;;;;;9.15;1.27;;;4.70;99.90;;;;;;4889258;29;20112;-77
2023/02/25 01:06:09;;;;;;;11.57;1.10;;;4.80;99.90;;;;;;4895780;29;20033;-77
2023/02/25 01:08:35;;;;;;;5.65;1.00;;;4.80;99.90;;;;;;4897260;29;20032;-77
2023/02/25 01:11:14;;;;;;;14.63;2.10;;;4.80;99.90;;;;;;4872465;29;20096;-77
2023/02/25 01:13:40;;;;;;;12.30;1.48;;;4.90;99.90;;;;;;4896302;29;20041;-76
2023/02/25 01:16:10;;;;;;;7.43;1.33;;;4.80;99.90;;;;;;4877381;29;20099;-76
2023/02/25 01:18:36;;;;;;;16.65;1.02;;;4.80;99.90;;;;;;4889464;29;20096;-76
2023/02/25 01:21:02;;;;;;;20.85;1.55;;;4.80;99.90;;;;;;4879984;29;20123;-76
2023/02/25 01:23:29;;;;;;;13.45;1.65;;;4.70;99.90;;;;;;4896976;29;20111;-77
2023/02/25 01:25:56;;;;;;;19.35;2.17;;;4.70;99.90;;;;;;4894987;29;20151;-76
2023/02/25 01:28:21;;;;;;;9.75;1.15;;;4.60;99.90;;;;;;4880040;29;20048;-77
2023/02/25 01:30:47;;;;;;;8.32;1.73;;;4.60;99.90;;;;;;4881088;29;20029;-77
2023/02/25 01:33:14;;;;;;;13.43;1.30;;;4.60;99.90;;;;;;4898093;29;20051;-77
2023/02/25 01:35:39;;;;;;;16.25;2.33;;;4.70;99.90;;;;;;4896731;29;20393;-78
2023/02/25 01:38:05;;;;;;;11.88;2.30;;;4.60;99.90;;;;;;4880809;29;20047;-77
2023/02/25 01:40:31;;;;;;;23.80;3.60;;;4.60;99.90;;;;;;4897398;29;20032;-77
2023/02/25 01:42:56;;;;;;;9.73;3.47;;;4.60;99.90;;;;;;4896974;29;20071;-78
2023/02/25 01:45:27;;;;;;;18.42;2.22;;;4.60;99.90;;;;;;4879804;29;20088;-77
2023/02/25 01:48:17;;;;;;;7.40;1.25;;;4.60;99.90;;;;;;4881100;29;20025;-77
2023/02/25 01:51:03;;;;;;;8.60;1.60;;;4.70;99.90;;;;;;4897905;29;20029;-78
2023/02/25 01:53:33;;;;;;;7.07;1.10;;;4.60;99.90;;;;;;4897204;29;20504;-77
2023/02/25 01:56:01;;;;;;;10.88;2.08;;;4.60;99.90;;;;;;4897819;29;20028;-77
2023/02/25 01:58:27;;;;;;;30.92;3.10;;;4.70;99.90;;;;;;4897790;29;20032;-77
2023/02/25 02:00:54;;;;;;;18.73;1.85;;;4.70;99.90;;;;;;4877987;29;20473;-77
2023/02/25 02:03:26;;;;;;;11.15;1.48;;;4.70;99.90;;;;;;4866478;29;20406;-76
2023/02/25 02:06:14;;;;;;;5.75;0.93;;;4.80;99.90;;;;;;4879942;29;20064;-76
2023/02/25 02:08:42;;;;;;;5.83;1.53;;;4.80;99.90;;;;;;4889074;29;20081;-76
2023/02/25 02:11:08;;;;;;;10.70;2.08;;;4.80;99.90;;;;;;4887473;29;20789;-76
2023/02/25 02:13:37;;;;;;;13.80;1.35;;;4.80;99.90;;;;;;4897289;29;20035;-76
2023/02/25 02:16:26;;;;;;;14.05;1.85;;;4.90;99.90;;;;;;4880176;29;20413;-75
2023/02/25 02:18:57;;;;;;;11.02;0.82;;;4.90;99.90;;;;;;4897056;29;20489;-76
2023/02/25 02:21:47;;;;;;;13.57;1.77;;;5.00;99.90;;;;;;4884751;29;20496;-78
2023/02/25 02:24:50;;;;;;;9.45;1.60;;;5.00;99.90;;;;;;4879652;29;20036;-78
2023/02/25 02:27:50;;;;;;;12.63;1.33;;;5.00;99.90;;;;;;4897634;29;20052;-77
2023/02/25 02:30:41;;;;;;;10.82;1.88;;;5.00;99.90;;;;;;4880297;29;20481;-79
2023/02/25 02:33:45;;;;;;;9.13;0.98;;;5.00;99.90;;;;;;4892574;29;20507;-76
2023/02/25 02:36:42;;;;;;;13.65;2.08;;;5.00;99.90;;;;;;4867384;29;20040;-76
2023/02/25 02:39:44;;;;;;;13.07;0.88;;;5.00;99.90;;;;;;4868267;29;20056;-77
2023/02/25 02:42:39;;;;;;;14.80;1.98;;;5.00;99.90;;;;;;4876529;29;20512;-77
2023/02/25 02:45:20;;;;;;;16.23;1.48;;;5.10;99.90;;;;;;4865460;29;20025;-76
2023/02/25 02:47:51;;;;;;;12.60;1.75;;;5.20;99.90;;;;;;4896464;29;20037;-77
2023/02/25 02:50:41;;;;;;;29.02;1.77;;;5.20;99.90;;;;;;4900704;29;20547;-76
2023/02/25 02:53:20;;;;;;;18.95;2.08;;;5.10;99.90;;;;;;4865968;29;20029;-76
2023/02/25 02:55:51;;;;;;;14.13;1.63;;;5.10;99.90;;;;;;4869326;29;20029;-76
2023/02/25 02:58:22;;;;;;;12.73;1.88;;;5.20;99.90;;;;;;4882660;29;20493;-76
2023/02/25 03:01:00;;;;;;;8.10;2.05;;;5.20;99.90;;;;;;4883575;29;20040;-75
2023/02/25 03:03:35;;;;;;;33.40;3.75;;;5.30;99.90;;;;;;4882981;29;20127;-76
2023/02/25 03:06:06;;;;;;;12.45;2.75;;;5.30;99.90;;;;;;4900365;29;20059;-78
2023/02/25 03:08:40;;;;;;;11.88;2.47;;;5.30;99.90;;;;;;4883674;29;20095;-78
2023/02/25 03:11:05;;;;;;;14.75;2.22;;;5.30;99.90;;;;;;4881625;29;20048;-78
2023/02/25 03:13:31;;;;;;;5.72;1.77;;;5.30;99.90;;;;;;4900322;29;20037;-78
2023/02/25 03:16:00;;;;;;;15.75;2.30;;;5.30;99.90;;;;;;4900422;29;20024;-77
2023/02/25 03:18:49;;;;;;;7.80;2.25;;;5.40;99.90;;;;;;4883574;29;20060;-78
2023/02/25 03:21:20;;;;;;;28.33;5.20;;;5.40;99.90;;;;;;4887678;29;20084;-78
2023/02/25 03:23:47;;;;;;;15.60;1.98;;;5.40;99.90;;;;;;4897159;29;20490;-78
2023/02/25 03:26:29;;;;;;;21.98;2.08;;;5.30;99.90;;;;;;4900171;29;20181;-78
2023/02/25 03:28:55;;;;;;;15.70;1.80;;;5.30;99.90;;;;;;4888374;29;20386;-77
2023/02/25 03:31:45;;;;;;;16.48;2.35;;;5.30;99.90;;;;;;4899949;29;20039;-77
2023/02/25 03:34:43;;;;;;;16.10;2.28;;;5.40;99.90;;;;;;4891747;29;20474;-77
2023/02/25 03:37:16;;;;;;;16.77;1.98;;;5.40;99.90;;;;;;4882258;29;20045;-78
2023/02/25 03:39:46;;;;;;;28.48;3.90;;;5.40;99.90;;;;;;4883435;29;20040;-78
2023/02/25 03:42:18;;;;;;;16.40;1.60;;;5.40;99.90;;;;;;4896483;29;20024;-78
2023/02/25 03:44:48;;;;;;;17.55;1.70;;;5.30;99.90;;;;;;4883040;29;20084;-77
2023/02/25 03:47:16;;;;;;;9.88;2.28;;;5.30;99.90;;;;;;4882462;29;20071;-77
2023/02/25 03:49:58;;;;;;;11.65;2.17;;;5.30;99.90;;;;;;4899727;29;20036;-77
2023/02/25 03:52:26;;;;;;;8.95;1.70;;;5.30;99.90;;;;;;4881816;29;20052;-77
2023/02/25 03:54:55;;;;;;;24.30;2.13;;;5.20;99.90;;;;;;4880961;29;20036;-77
2023/02/25 03:57:26;;;;;;;16.88;2.10;;;5.20;99.90;;;;;;4879304;29;20048;-77
2023/02/25 03:59:55;;;;;;;13.63;1.85;;;5.20;99.90;;;;;;4882219;29;20028;-78
2023/02/25 04:02:27;;;;;;;10.60;1.42;;;5.10;99.90;;;;;;4882604;29;20485;-77
2023/02/25 04:04:52;;;;;;;13.15;2.50;;;5.10;99.90;;;;;;4898425;29;20032;-78
2023/02/25 04:07:18;;;;;;;15.07;2.72;;;5.10;99.90;;;;;;4881525;29;20493;-78
2023/02/25 04:09:44;;;;;;;14.65;2.17;;;5.10;99.90;;;;;;4898494;29;20036;-77
2023/02/25 04:12:09;;;;;;;17.00;2.53;;;5.10;99.90;;;;;;4899448;29;20036;-78
2023/02/25 04:14:35;;;;;;;7.55;1.00;;;5.20;99.90;;;;;;4881921;29;20516;-78
2023/02/25 04:17:04;;;;;;;5.47;1.20;;;5.20;99.90;;;;;;4896744;29;20046;-77
2023/02/25 04:19:31;;;;;;;11.85;2.08;;;5.30;99.90;;;;;;4899287;29;20523;-78
2023/02/25 04:21:57;;;;;;;25.48;3.40;;;5.30;99.90;;;;;;4882363;29;20029;-78
2023/02/25 04:24:22;;;;;;;14.75;1.95;;;5.20;99.90;;;;;;4892758;29;20028;-78
2023/02/25 04:26:48;;;;;;;6.80;1.55;;;5.20;99.90;;;;;;4882212;29;20123;-78
2023/02/25 04:29:14;;;;;;;18.25;2.45;;;5.20;99.90;;;;;;4881268;29;20080;-78
2023/02/25 04:31:39;;;;;;;14.18;2.15;;;5.20;99.90;;;;;;4898961;29;20033;-76
2023/02/25 04:34:05;;;;;;;10.48;1.17;;;5.10;99.90;;;;;;4898276;29;20044;-78
2023/02/25 04:36:34;;;;;;;16.58;3.38;;;5.10;99.90;;;;;;4898984;29;20489;-78
2023/02/25 04:39:03;;;;;;;18.17;1.67;;;5.10;99.90;;;;;;4898805;29;20036;-78
2023/02/25 04:41:34;;;;;;;15.70;1.55;;;5.10;99.90;;;;;;4881920;29;20033;-78
2023/02/25 04:44:02;;;;;;;23.00;3.63;;;5.10;99.90;;;;;;4898009;29;20028;-78
2023/02/25 04:46:28;;;;;;;;;;;5.10;99.90;;;;;;4899035;29;20080;-79
2023/02/25 04:48:55;;;;;;;8.52;1.80;;;5.10;99.90;;;;;;4881376;29;20013;-77
2023/02/25 04:51:20;;;;;;;10.80;2.03;;;5.10;99.90;;;;;;4881850;29;20028;-78
2023/02/25 04:53:46;;;;;;;10.05;1.23;;;5.10;99.90;;;;;;4897676;29;20035;-77
2023/02/25 04:56:13;;;;;;;14.45;1.20;;;5.00;99.90;;;;;;4881435;29;20032;-78
2023/02/25 04:58:38;;;;;;;8.05;1.40;;;5.00;99.90;;;;;;4897384;29;20039;-78
2023/02/25 05:01:06;;;;;;;12.70;1.05;;;5.00;99.90;;;;;;4895624;29;20112;-77
2023/02/25 05:03:32;;;;;;;11.48;1.27;;;5.00;99.90;;;;;;4897196;29;20112;-78
2023/02/25 05:05:58;;;;;;;11.07;1.30;;;5.00;99.90;;;;;;4868046;29;20081;-77
2023/02/25 05:08:24;;;;;;;10.68;1.42;;;5.00;99.90;;;;;;4891278;29;20358;-77
2023/02/25 05:10:50;;;;;;;10.45;1.50;;;5.00;99.90;;;;;;4880790;29;20024;-77
2023/02/25 05:13:17;;;;;;;15.85;1.90;;;5.00;99.90;;;;;;4871979;29;20025;-76
2023/02/25 05:15:42;;;;;;;8.77;1.52;;;4.90;99.90;;;;;;4897071;29;20450;-76
2023/02/25 05:18:08;;;;;;;10.90;1.45;;;4.90;99.90;;;;;;4886905;29;20025;-75
2023/02/25 05:20:40;;;;;;;9.82;1.25;;;5.00;99.90;;;;;;4876229;29;20068;-76
2023/02/25 05:23:05;;;;;;;7.45;1.65;;;5.00;99.90;;;;;;4881373;29;20044;-77
2023/02/25 05:25:32;;;;;;;12.73;1.15;;;4.90;99.90;;;;;;4879317;29;20405;-77
2023/02/25 05:27:58;;;;;;;14.05;1.00;;;4.90;99.90;;;;;;4881171;29;20020;-75
2023/02/25 05:30:24;;;;;;;14.23;1.42;;;4.80;99.90;;;;;;4880816;29;20024;-76
2023/02/25 05:32:50;;;;;;;10.18;1.45;;;4.80;99.90;;;;;;4881651;29;20044;-76
2023/02/25 05:35:16;;;;;;;10.90;1.25;;;4.80;99.90;;;;;;4897719;29;20394;-77
2023/02/25 05:37:41;;;;;;;17.10;1.80;;;4.80;99.90;;;;;;4899414;29;20153;-76
2023/02/25 05:40:08;;;;;;;7.13;1.25;;;4.80;99.90;;;;;;4883788;29;20044;-78
2023/02/25 05:42:34;;;;;;;9.93;1.30;;;4.70;99.90;;;;;;4885982;29;20037;-76
2023/02/25 05:45:00;;;;;;;10.98;1.15;;;4.80;99.90;;;;;;4887667;29;20095;-76
2023/02/25 05:47:26;;;;;;;17.10;1.65;;;4.70;99.90;;;;;;4919659;29;20020;-78
2023/02/25 05:49:51;;;;;;;16.48;2.03;;;4.60;99.90;;;;;;4920175;29;20021;-78
2023/02/25 05:52:17;;;;;;;21.42;3.78;;;4.60;99.90;;;;;;4919409;29;20052;-78
2023/02/25 05:54:43;;;;;;;7.82;1.38;;;4.60;99.90;;;;;;4905309;29;20032;-78
2023/02/25 05:57:09;;;;;;;13.30;1.92;;;4.60;99.90;;;;;;4921043;29;20032;-77
2023/02/25 05:59:35;;;;;;;5.78;0.80;;;4.60;99.90;;;;;;4921043;29;20036;-77
2023/02/25 06:02:01;;;;;;;7.20;1.40;;;4.50;99.90;;;;;;4917104;29;20009;-77
2023/02/25 06:04:27;;;;;;;14.90;1.85;;;4.50;99.90;;;;;;4904810;29;20049;-80
2023/02/25 06:06:53;;;;;;;7.45;1.83;;;4.60;99.90;;;;;;4921253;29;20041;-77
2023/02/25 06:09:19;;;;;;;6.45;1.88;;;4.50;99.90;;;;;;4903865;29;20468;-77
2023/02/25 06:11:47;;;;;;;11.52;1.77;;;4.50;99.90;;;;;;4873091;29;20073;-76
2023/02/25 06:14:13;;;;;;;5.70;1.13;;;4.60;99.90;;;;;;4893703;29;20029;-78
2023/02/25 06:16:39;;;;;;;14.18;1.45;;;4.70;99.90;;;;;;4895307;29;20060;-77
2023/02/25 06:19:05;;;;;;;11.07;1.75;;;4.70;99.90;;;;;;4899365;29;20025;-76
2023/02/25 06:21:32;;;;;;;14.68;1.63;;;4.80;99.90;;;;;;4920423;29;20038;-78
2023/02/25 06:23:59;;;;;;;7.88;1.38;;;4.80;99.90;;;;;;4919988;29;20017;-78
2023/02/25 06:26:25;;;;;;;14.43;1.83;;;4.70;99.90;;;;;;4925331;29;20028;-78
2023/02/25 06:28:51;;;;;;;13.02;1.27;;;4.70;99.90;;;;;;4925244;29;20009;-78
2023/02/25 06:31:19;;;;;;;9.77;1.08;;;4.70;99.90;;;;;;4908928;29;20032;-78
2023/02/25 06:33:45;;;;;;;18.33;2.33;;;4.70;99.90;;;;;;4897896;29;20028;-79
2023/02/25 06:36:12;;;;;;;13.57;1.92;;;4.80;99.90;;;;;;4920091;29;20275;-79
2023/02/25 06:38:38;;;;;;;10.18;1.63;;;4.70;99.90;;;;;;4924067;29;20028;-79
2023/02/25 06:41:14;;;;;;;22.98;3.10;;;4.70;99.90;;;;;;4908605;29;20024;-77
2023/02/25 06:43:40;;;;;;;18.85;2.95;;;4.60;99.90;;;;;;4923897;29;20068;-80
2023/02/25 06:46:08;;;;;;;8.35;1.00;;;4.60;99.90;;;;;;4923363;29;20072;-78
2023/02/25 06:48:34;;;;;;;7.68;1.35;;;4.60;99.90;;;;;;4922803;29;20028;-78
2023/02/25 06:51:00;;;;;;;20.40;2.97;;;4.60;99.90;;;;;;4923566;29;20106;-78
2023/02/25 06:53:27;;;;;;;29.85;2.53;;;4.60;99.90;;;;;;4912036;29;20029;-77
2023/02/25 06:55:53;;;;;;;12.90;1.30;;;4.50;99.90;;;;;;4905516;29;20042;-78
2023/02/25 06:58:18;;;;;;;15.27;1.45;;;4.60;99.90;;;;;;4902662;29;20544;-78
2023/02/25 07:00:44;;;;;;;17.52;1.83;;;4.60;99.90;;;;;;4899595;29;20053;-77
2023/02/25 07:03:11;;;;;;;11.85;1.45;;;4.60;99.90;;;;;;4874220;29;20032;-78
2023/02/25 07:05:37;;;;;;;19.02;2.45;;;4.60;99.90;;;;;;4865883;29;20037;-77
2023/02/25 07:08:03;;;;;;;22.23;2.35;;;4.70;99.90;;;;;;4883031;29;20040;-77
2023/02/25 07:10:29;;;;;;;16.75;1.45;;;4.80;99.90;;;;;;4885447;29;20033;-78
2023/02/25 07:12:54;;;;;;;9.90;1.83;;;4.90;99.90;;;;;;4860730;29;20105;-77
2023/02/25 07:15:20;;;;;;;14.45;1.83;;;5.00;99.90;;;;;;4838845;29;20045;-76
2023/02/25 07:17:46;;;;;;;16.23;1.67;;;5.00;99.90;;;;;;4859002;29;20545;-77
2023/02/25 07:20:13;;;;;;;13.38;1.73;;;5.00;99.90;;;;;;4844854;29;20029;-76
2023/02/25 07:22:40;;;;;;;8.32;1.15;;;5.00;99.90;;;;;;4843567;29;20046;-78
2023/02/25 07:25:07;;;;;;;24.55;2.38;;;5.00;99.90;;;;;;4842914;29;20028;-77
2023/02/25 07:27:33;;;;;;;16.08;1.90;;;5.10;99.90;;;;;;4841376;29;20046;-77
2023/02/25 07:30:00;;;;;;;15.70;1.65;;;5.10;99.90;;;;;;4848196;29;20441;-77
2023/02/25 07:32:26;;;;;;;11.57;2.17;;;5.20;99.90;;;;;;4841483;29;20121;-76
2023/02/25 07:34:51;;;;;;;5.15;1.35;;;5.20;99.90;;;;;;4833207;29;20137;-77
2023/02/25 07:37:17;;;;;;;11.57;2.78;;;5.20;99.90;;;;;;4841880;29;20041;-75
2023/02/25 07:39:43;;;;;;;18.20;3.10;;;5.10;99.90;;;;;;4850548;29;20548;-76
2023/02/25 07:42:08;;;;;;;10.93;1.40;;;5.10;99.90;;;;;;4856307;29;20030;-77
2023/02/25 07:44:34;;;;;;;13.02;1.58;;;5.10;99.90;;;;;;4877547;29;20042;-75
2023/02/25 07:47:00;;;;;;;19.60;1.73;;;5.10;99.90;;;;;;4899773;29;20024;-76
2023/02/25 07:49:26;;;;;;;17.27;1.85;;;5.10;99.90;;;;;;4899183;29;20084;-76
2023/02/25 07:51:52;;;;;;;15.57;1.90;;;5.20;99.90;;;;;;4885220;29;20036;-76
2023/02/25 07:54:20;;;;;;;21.98;2.10;;;5.20;99.90;;;;;;4898248;29;20115;-77
2023/02/25 07:56:46;;;;;;;15.23;1.20;;;5.30;99.90;;;;;;4893345;29;20029;-77
2023/02/25 07:59:12;;;;;;;13.55;1.60;;;5.30;99.90;;;;;;4881699;29;20064;-78
2023/02/25 08:01:38;;;;;;;11.40;2.08;;;5.40;99.90;;;;;;4881161;29;20056;-77
2023/02/25 08:04:05;;;;;;;9.80;2.15;;;5.50;99.90;;;;;;4899647;29;20519;-78
2023/02/25 08:06:34;;;;;;;20.80;1.83;;;5.50;99.90;;;;;;4899486;29;20068;-78
2023/02/25 08:09:00;;;;;;;25.05;2.38;;;5.50;99.90;;;;;;4899260;29;20366;-76
2023/02/25 08:11:26;;;;;;;20.83;2.25;;;5.50;99.90;;;;;;4881848;29;20116;-76
2023/02/25 08:13:52;;;;;;;11.00;1.27;;;5.50;99.90;;;;;;4882446;29;20393;-78
2023/02/25 08:16:20;;;;;;;13.80;1.40;;;5.50;99.90;;;;;;4877659;29;20486;-77
2023/02/25 08:18:46;;;;;;;6.20;1.30;;;5.50;99.90;;;;;;4879474;29;20025;-77
2023/02/25 08:21:16;;;;;;;6.80;1.35;;;5.60;99.90;;;;;;4896425;29;20048;-78
2023/02/25 08:23:42;;;;;;;17.02;2.40;;;5.60;99.90;;;;;;4899165;29;20076;-78
2023/02/25 08:26:09;;;;;;;16.05;2.80;;;5.60;99.90;;;;;;4904924;29;20503;-77
2023/02/25 08:28:34;;;;;;;37.03;2.58;;;5.50;99.90;;;;;;4918183;29;20048;-77
2023/02/25 08:31:00;;;;;;;14.55;1.38;;;5.60;99.90;;;;;;4898107;29;20039;-78
2023/02/25 08:33:27;;;;;;;15.15;1.55;;;5.70;99.90;;;;;;4897093;29;20028;-77
2023/02/25 08:35:53;;;;;;;19.58;1.85;;;5.60;99.90;;;;;;4899213;29;20501;-77
2023/02/25 08:38:19;;;;;;;20.65;2.17;;;5.70;99.90;;;;;;4877121;29;20033;-78
2023/02/25 08:40:45;;;;;;;8.23;1.67;;;5.90;99.90;;;;;;4884723;29;20446;-78
2023/02/25 08:43:10;;;;;;;11.38;1.40;;;5.80;99.90;;;;;;4873674;29;20371;-79
2023/02/25 08:45:37;;;;;;;10.48;0.80;;;5.90;99.90;;;;;;4873716;29;20017;-78
2023/02/25 08:48:03;;;;;;;4.55;1.58;;;5.80;99.90;;;;;;4880512;29;20032;-78
2023/02/25 08:50:30;;;;;;;8.57;1.35;;;5.80;99.90;;;;;;4892559;29;20043;-78
2023/02/25 08:52:57;;;;;;;4.27;0.60;;;5.90;99.90;;;;;;4897268;29;20542;-79
2023/02/25 08:55:23;;;;;;;8.88;1.10;;;5.90;99.90;;;;;;4891219;29;20072;-78
2023/02/25 08:57:51;;;;;;;8.25;0.73;;;5.90;99.90;;;;;;4881361;29;20088;-78
2023/02/25 09:00:20;;;;;;;8.35;0.90;;;5.90;99.90;;;;;;4880936;29;20036;-78
2023/02/25 09:02:46;;;;;;;5.68;0.88;;;6.00;99.90;;;;;;4880599;29;20401;-78
2023/02/25 09:05:12;;;;;;;6.85;1.05;;;6.10;99.90;;;;;;4877069;29;20059;-78
2023/02/25 09:07:38;;;;;;;8.70;0.85;;;6.10;99.90;;;;;;4877532;29;20029;-78
2023/02/25 09:10:06;;;;;;;5.82;1.23;;;6.00;99.90;;;;;;4874851;29;20040;-78
2023/02/25 09:12:32;;;;;;;7.07;0.98;;;6.00;99.90;;;;;;4879591;29;20081;-78
2023/02/25 09:14:58;;;;;;;7.30;0.82;;;6.00;99.90;;;;;;4881233;29;20089;-83
2023/02/25 09:17:24;;;;;;;7.97;1.13;;;5.90;99.90;;;;;;4895017;29;20025;-78
2023/02/25 09:19:49;;;;;;;4.07;0.85;;;5.80;99.90;;;;;;4879363;29;20088;-74
2023/02/25 09:22:15;;;;;;;6.97;1.02;;;5.80;99.90;;;;;;4880692;29;20032;-75
2023/02/25 09:24:41;;;;;;;5.63;1.23;;;5.90;99.90;;;;;;4880598;29;20021;-75
2023/02/25 09:27:06;;;;;;;14.52;1.80;;;5.80;99.90;;;;;;4889723;29;20024;-76
2023/02/25 09:29:41;;;;;;;8.38;0.75;;;5.80;99.90;;;;;;4877342;29;20094;-75
2023/02/25 09:32:14;;;;;;;5.03;0.90;;;6.00;99.90;;;;;;4879580;29;20112;-76
2023/02/25 09:34:40;;;;;;;10.23;0.80;;;6.00;99.90;;;;;;4890137;29;20032;-76
2023/02/25 09:37:08;;;;;;;5.55;0.75;;;6.00;99.90;;;;;;4895131;29;20135;-77
2023/02/25 09:39:34;;;;;;;6.10;0.77;;;6.10;99.90;;;;;;4880777;29;20028;-77
2023/02/25 09:42:09;;;;;;;15.43;1.63;;;6.30;99.90;;;;;;4895817;29;20031;-80
2023/02/25 09:44:38;;;;;;;4.40;1.33;;;6.40;99.90;;;;;;4866600;29;20025;-76
2023/02/25 09:47:29;;;;;;;6.47;1.00;;;6.50;99.90;;;;;;4879111;29;20363;-75
2023/02/25 09:50:20;;;;;;;4.90;0.57;;;6.50;99.90;;;;;;4878119;29;20037;-78
2023/02/25 09:53:17;;;;;;;3.10;0.60;;;6.30;99.90;;;;;;4883248;29;20045;-75
2023/02/25 09:55:46;;;;;;;8.05;0.52;;;6.00;99.90;;;;;;4871255;29;20060;-76
2023/02/25 09:58:41;;;;;;;3.67;0.63;;;5.60;99.90;;;;;;4876072;29;20489;-77
2023/02/25 10:01:07;;;;;;;9.05;1.02;;;5.40;99.90;;;;;;4901092;29;20036;-77
2023/02/25 10:03:57;;;;;;;3.28;0.50;;;5.30;99.90;;;;;;4884324;29;20088;-77
2023/02/25 10:06:44;;;;;;;3.90;1.50;;;5.30;99.90;;;;;;4901706;29;20028;-76
2023/02/25 10:09:41;;;;;;;8.07;1.60;;;5.40;99.90;;;;;;4900108;29;20116;-76
2023/02/25 10:12:45;;;;;;;2.45;1.08;;;5.70;99.90;;;;;;4884764;29;20296;-76
2023/02/25 10:15:22;;;;;;;1.80;0.47;;;6.00;99.90;;;;;;4881188;29;20040;-76
2023/02/25 10:18:07;;;;;;;2.28;0.60;;;6.10;99.90;;;;;;4899413;29;20494;-77
2023/02/25 10:20:51;;;;;;;3.20;0.68;;;6.30;99.90;;;;;;4883841;29;20084;-77
2023/02/25 10:23:37;;;;;;;4.50;0.82;;;6.50;99.90;;;;;;4901492;29;20043;-77
2023/02/25 10:26:23;;;;;;;1.50;0.40;;;6.70;99.90;;;;;;4884397;29;20032;-76
2023/02/25 10:29:01;;;;;;;2.00;0.40;;;6.90;99.90;;;;;;4885954;29;20508;-78
2023/02/25 10:31:29;;;;;;;0.30;0.28;;;6.90;99.90;;;;;;4883106;29;20024;-77
2023/02/25 10:33:57;;;;;;;2.65;0.52;;;6.80;99.90;;;;;;4890964;29;20036;-77
2023/02/25 10:36:42;;;;;;;2.97;0.85;;;6.80;99.90;;;;;;4884650;29;20043;-78
2023/02/25 10:39:09;;;;;;;4.75;0.45;;;6.70;99.90;;;;;;4884785;29;20036;-77
2023/02/25 10:41:35;;;;;;;3.40;0.47;;;6.60;99.90;;;;;;4884388;29;20047;-78
2023/02/25 10:44:01;;;;;;;6.43;0.82;;;6.60;99.90;;;;;;4898369;29;20032;-77
2023/02/25 10:46:40;;;;;;;2.15;1.20;;;6.70;99.90;;;;;;4900292;29;20065;-77
2023/02/25 10:49:22;;;;;;;7.47;1.95;;;6.80;99.90;;;;;;4870458;29;20040;-77
2023/02/25 10:52:17;;;;;;;4.75;1.30;;;7.00;99.90;;;;;;4900146;29;20037;-77
2023/02/25 10:54:51;;;;;;;8.68;1.85;;;7.00;99.90;;;;;;4881935;29;20032;-78
2023/02/25 10:57:40;;;;;;;14.32;1.42;;;7.10;99.90;;;;;;4900230;29;20021;-77
2023/02/25 11:00:28;;;;;;;13.57;1.52;;;7.30;99.90;;;;;;4900266;29;20116;-77
2023/02/25 11:03:00;;;;;;;9.40;1.23;;;7.40;99.90;;;;;;4881080;29;20131;-77
2023/02/25 11:05:39;;;;;;;2.53;0.80;;;7.80;99.90;;;;;;4865452;29;20033;-78
2023/02/25 11:08:26;;;;;;;6.40;0.98;;;7.90;99.90;;;;;;4865081;29;20032;-79
2023/02/25 11:11:18;;;;;;;5.90;1.15;;;7.00;99.90;;;;;;4898260;29;20032;-78
2023/02/25 11:14:05;;;;;;;0.40;0.10;;;6.40;99.90;;;;;;4899134;29;20119;-77
2023/02/25 11:16:34;;;;;;;5.82;0.40;;;6.20;99.90;;;;;;4899609;29;20043;-76
2023/02/25 11:19:10;;;;;;;1.45;0.50;;;6.20;99.90;;;;;;4859749;29;20402;-75
2023/02/25 11:21:37;;;;;;;0.95;0.20;;;6.20;99.90;;;;;;4860733;29;20426;-76
2023/02/25 11:24:16;;;;;;;1.33;0.35;;;6.20;99.90;;;;;;4860931;29;20037;-76
2023/02/25 11:26:47;;;;;;;4.07;0.63;;;6.40;99.90;;;;;;4844923;29;20030;-76
2023/02/25 11:29:37;;;;;;;5.68;0.47;;;6.50;99.90;;;;;;4858591;29;20594;-77
2023/02/25 11:32:12;;;;;;;2.38;0.57;;;6.70;99.90;;;;;;4847638;29;20498;-77
2023/02/25 11:34:50;;;;;;;5.80;0.45;;;6.80;99.90;;;;;;4860216;29;20481;-77
2023/02/25 11:37:49;;;;;;;8.07;1.00;;;6.80;99.90;;;;;;4844604;29;20045;-78
2023/02/25 11:40:30;;;;;;;7.85;0.65;;;6.90;99.90;;;;;;4845201;29;20522;-77
2023/02/25 11:43:26;;;;;;;5.78;0.70;;;6.90;99.90;;;;;;4844759;29;20150;-77
2023/02/25 11:46:02;;;;;;;4.93;1.05;;;7.00;99.90;;;;;;4859263;29;20108;-77
2023/02/25 11:48:48;;;;;;;4.43;0.80;;;7.00;99.90;;;;;;4858828;29;20029;-77
2023/02/25 11:51:25;;;;;;;2.53;0.50;;;7.10;99.90;;;;;;4899036;29;20039;-76
2023/02/25 11:54:03;;;;;;;5.20;0.50;;;7.30;99.90;;;;;;4882800;29;20033;-78
2023/02/25 11:56:38;;;;;;;2.10;0.50;;;7.30;99.90;;;;;;4898805;29;20136;-78
2023/02/25 11:59:43;;;;;;;9.55;0.85;;;7.40;99.90;;;;;;4887770;29;20021;-76
2023/02/25 12:02:57;;;;;;;3.65;0.73;;;7.50;99.90;;;;;;4860643;29;20132;-75
2023/02/25 12:05:27;;;;;;;4.88;0.90;;;7.40;99.90;;;;;;4805820;29;20097;-77
2023/02/25 12:08:18;;;;;;;6.15;0.60;;;7.20;99.90;;;;;;4789844;29;20496;-76
2023/02/25 12:11:02;;;;;;;4.50;0.80;;;7.40;99.90;;;;;;4839019;29;20037;-77
2023/02/25 12:14:12;;;;;;;2.17;1.08;;;7.60;99.90;;;;;;4881365;29;20029;-76
2023/02/25 12:16:57;;;;;;;1.52;0.50;;;7.90;99.90;;;;;;4838063;29;20425;-77
2023/02/25 12:19:51;;;;;;;2.22;1.08;;;7.90;99.90;;;;;;4894673;29;20068;-77
2023/02/25 12:22:38;;;;;;;5.90;0.93;;;7.80;99.90;;;;;;4897504;29;20079;-77
2023/02/25 12:25:19;;;;;;;8.43;1.13;;;7.80;99.90;;;;;;4875375;29;20081;-77
2023/02/25 12:28:02;;;;;;;2.53;0.68;;;7.70;99.90;;;;;;4879107;29;20041;-78
2023/02/25 12:31:01;;;;;;;5.18;1.10;;;7.70;99.90;;;;;;4862050;29;20029;-76
2023/02/25 12:33:48;;;;;;;5.28;0.60;;;7.90;99.90;;;;;;4863272;29;20033;-77
2023/02/25 12:36:32;;;;;;;6.55;1.08;;;7.90;99.90;;;;;;4879305;29;20131;-77
2023/02/25 12:39:20;;;;;;;6.10;1.10;;;7.70;99.90;;;;;;4879148;29;20048;-78
2023/02/25 12:42:07;;;;;;;2.72;0.55;;;7.60;99.90;;;;;;4895904;29;20134;-77
2023/02/25 12:44:43;;;;;;;6.32;1.77;;;7.60;99.90;;;;;;4878962;29;20045;-78
2023/02/25 12:47:51;;;;;;;3.33;0.80;;;7.60;99.90;;;;;;4877685;29;20179;-77
2023/02/25 12:50:17;;;;;;;5.72;1.00;;;7.40;99.90;;;;;;4885771;29;20439;-78
2023/02/25 12:53:05;;;;;;;7.38;1.02;;;7.50;99.90;;;;;;4894436;29;20037;-77
2023/02/25 12:55:56;;;;;;;9.73;1.58;;;7.70;99.90;;;;;;4890165;29;20101;-77
2023/02/25 12:58:43;;;;;;;5.97;0.65;;;7.80;99.90;;;;;;4889011;29;20044;-77
2023/02/25 13:01:12;;;;;;;11.13;1.00;;;7.80;99.90;;;;;;4885896;29;20108;-77
2023/02/25 13:04:04;;;;;;;5.72;1.15;;;7.60;99.90;;;;;;4895326;29;20176;-77
2023/02/25 13:07:01;;;;;;;4.47;0.90;;;7.60;99.90;;;;;;4867252;29;20434;-78
2023/02/25 13:09:30;;;;;;;;;;;7.80;99.90;;;;;;4861396;29;20146;-76
2023/02/25 13:12:13;;;;;;;8.23;0.95;;;8.00;99.90;;;;;;4882021;29;19915;-77
2023/02/25 13:14:56;;;;;;;3.20;0.50;;;8.00;99.90;;;;;;4895526;29;20075;-75
2023/02/25 13:17:45;;;;;;;3.33;0.32;;;7.70;99.90;;;;;;4878258;29;20028;-76
2023/02/25 13:20:40;;;;;;;3.33;0.57;;;7.70;99.90;;;;;;4893617;29;20036;-77
2023/02/25 13:23:24;;;;;;;9.82;0.82;;;8.00;99.90;;;;;;4879057;29;20029;-79